createdAt,value
2018-10-07T00:00:09.744Z,42.63
2018-10-07T00:01:09.305Z,42.33
2018-10-07T00:02:09.163Z,42.43
2018-10-07T00:03:09.749Z,42.33
2018-10-07T00:04:09.135Z,41.93
2018-10-07T00:05:09.741Z,42.55
2018-10-07T00:06:09.765Z,42.33
2018-10-07T00:07:09.116Z,42.33
2018-10-07T00:08:09.745Z,42.33
2018-10-07T00:09:09.743Z,42.43
2018-10-07T00:10:09.062Z,42.35
2018-10-07T00:11:09.056Z,42.33
2018-10-07T00:12:09.064Z,42.65
2018-10-07T00:13:09.744Z,42.25
2018-10-07T00:14:09.745Z,42.33
2018-10-07T00:15:09.011Z,42.45
2018-10-07T00:16:09.023Z,42.65
2018-10-07T00:17:09.016Z,42.33
2018-10-07T00:18:08.975Z,42.45
2018-10-07T00:19:08.963Z,42.23
2018-10-07T00:20:08.955Z,42.43
2018-10-07T00:21:09.752Z,42.45
2018-10-07T00:22:08.952Z,42.35
2018-10-07T00:23:08.923Z,42.63
2018-10-07T00:28:18.108Z,42.13
2018-10-07T00:29:19.810Z,42.45
2018-10-07T00:30:19.814Z,42.55
2018-10-07T00:31:19.813Z,42.35
2018-10-07T00:32:19.226Z,42.35
2018-10-07T00:33:19.039Z,42.33
2018-10-07T00:34:19.027Z,42.55
2018-10-07T00:35:19.014Z,42.45
2018-10-07T00:36:19.820Z,42.53
2018-10-07T00:37:19.329Z,42.55
2018-10-07T00:38:19.832Z,42.33
2018-10-07T00:39:19.825Z,42.45
2018-10-07T00:40:18.964Z,42.55
2018-10-07T00:41:18.952Z,42.65
2018-10-07T00:42:19.347Z,42.25
2018-10-07T00:43:19.816Z,42.55
2018-10-07T00:44:18.931Z,42.45
2018-10-07T00:45:18.911Z,42.35
2018-10-07T00:46:18.900Z,42.55
2018-10-07T00:47:18.905Z,42.45
2018-10-07T00:48:19.828Z,42.55
2018-10-07T00:49:18.882Z,42.55
2018-10-07T00:50:18.854Z,42.55
2018-10-07T00:51:18.841Z,42.55
2018-10-07T00:52:18.831Z,42.53
2018-10-07T00:53:18.843Z,42.65
2018-10-07T00:54:18.813Z,42.45
2018-10-07T00:55:18.801Z,42.55
2018-10-07T00:56:18.787Z,42.55
2018-10-07T00:57:19.326Z,42.55
2018-10-07T00:58:18.785Z,42.55
2018-10-07T00:59:19.318Z,42.65
2018-10-07T01:00:19.318Z,42.45
2018-10-07T01:01:19.315Z,42.55
2018-10-07T01:02:18.724Z,42.55
2018-10-07T01:03:18.761Z,42.55
2018-10-07T01:04:18.701Z,42.55
2018-10-07T01:05:19.317Z,42.65
2018-10-07T01:06:19.317Z,42.65
2018-10-07T01:07:19.318Z,42.65
2018-10-07T01:08:18.672Z,42.35
2018-10-07T01:09:18.649Z,42.55
2018-10-07T01:10:18.639Z,42.55
2018-10-07T01:11:18.625Z,42.55
2018-10-07T01:12:19.322Z,42.45
2018-10-07T01:13:18.634Z,42.65
2018-10-07T01:14:18.591Z,42.65
2018-10-07T01:15:18.589Z,42.55
2018-10-07T01:16:18.568Z,42.65
2018-10-07T01:17:18.568Z,42.65
2018-10-07T01:18:18.828Z,42.85
2018-10-07T01:19:18.534Z,42.65
2018-10-07T01:20:18.524Z,42.55
2018-10-07T01:21:19.315Z,42.65
2018-10-07T01:22:19.316Z,42.65
2018-10-07T01:23:18.835Z,42.55
2018-10-07T01:24:19.332Z,42.63
2018-10-07T01:25:19.316Z,42.65
2018-10-07T01:26:18.461Z,42.55
2018-10-07T01:27:18.448Z,42.85
2018-10-07T01:28:18.460Z,42.65
2018-10-07T01:29:18.424Z,42.65
2018-10-07T01:30:18.430Z,42.65
2018-10-07T01:31:18.407Z,42.65
2018-10-07T01:32:18.394Z,42.65
2018-10-07T01:33:18.411Z,42.53
2018-10-07T01:34:19.319Z,42.55
2018-10-07T01:35:19.320Z,42.55
2018-10-07T01:36:18.352Z,42.55
2018-10-07T01:37:19.321Z,42.55
2018-10-07T01:38:18.356Z,42.75
2018-10-07T01:39:18.319Z,42.65
2018-10-07T01:40:18.317Z,42.35
2018-10-07T01:41:18.826Z,42.25
2018-10-07T01:42:18.820Z,42.35
2018-10-07T01:43:18.295Z,42.15
2018-10-07T01:44:18.263Z,42.65
2018-10-07T01:45:18.249Z,42.55
2018-10-07T01:46:18.818Z,42.15
2018-10-07T01:47:18.821Z,42.35
2018-10-07T01:48:18.237Z,42.25
2018-10-07T01:49:18.819Z,42.35
2018-10-07T01:50:18.199Z,42.15
2018-10-07T01:51:18.198Z,41.75
2018-10-07T01:52:18.194Z,42.55
2018-10-07T01:53:18.200Z,42.35
2018-10-07T01:54:18.155Z,42.23
2018-10-07T01:55:18.830Z,41.96
2018-10-07T01:56:18.836Z,42.13
2018-10-07T01:57:18.825Z,42.45
2018-10-07T01:58:18.332Z,42.45
2018-10-07T01:59:18.149Z,42.25
2018-10-07T02:00:18.085Z,42.35
2018-10-07T02:01:18.080Z,42.65
2018-10-07T02:02:18.822Z,42.53
2018-10-07T02:03:18.337Z,42.55
2018-10-07T02:04:18.052Z,42.65
2018-10-07T02:05:18.045Z,42.65
2018-10-07T02:06:18.825Z,42.55
2018-10-07T02:07:18.010Z,42.55
2018-10-07T02:08:18.023Z,42.55
2018-10-07T02:09:17.989Z,42.55
2018-10-07T02:10:17.981Z,42.45
2018-10-07T02:11:18.836Z,42.75
2018-10-07T02:12:17.957Z,42.65
2018-10-07T02:13:17.966Z,42.85
2018-10-07T02:14:18.821Z,42.75
2018-10-07T02:15:17.925Z,42.65
2018-10-07T02:16:17.910Z,42.75
2018-10-07T02:17:18.825Z,42.85
2018-10-07T02:18:18.067Z,42.45
2018-10-07T02:19:18.821Z,42.75
2018-10-07T02:20:18.820Z,42.85
2018-10-07T02:21:17.857Z,42.65
2018-10-07T02:22:17.847Z,42.85
2018-10-07T02:23:18.331Z,42.75
2018-10-07T02:24:18.821Z,42.45
2018-10-07T02:25:17.812Z,42.35
2018-10-07T02:26:17.807Z,42.85
2018-10-07T02:27:18.319Z,42.35
2018-10-07T02:28:17.798Z,42.55
2018-10-07T02:29:17.767Z,42.85
2018-10-07T02:30:18.322Z,42.25
2018-10-07T02:31:17.752Z,42.35
2018-10-07T02:32:17.756Z,42.95
2018-10-07T02:33:17.830Z,42.45
2018-10-07T02:34:17.720Z,42.15
2018-10-07T02:35:17.704Z,42.15
2018-10-07T02:36:18.326Z,42.85
2018-10-07T02:37:18.322Z,42.45
2018-10-07T02:38:17.840Z,42.25
2018-10-07T02:39:17.671Z,42.35
2018-10-07T02:40:17.649Z,42.35
2018-10-07T02:41:17.641Z,42.35
2018-10-07T02:42:17.630Z,42.35
2018-10-07T02:43:17.648Z,42.95
2018-10-07T02:44:17.607Z,42.35
2018-10-07T02:45:17.592Z,42.95
2018-10-07T02:46:17.585Z,42.15
2018-10-07T02:47:18.323Z,42.35
2018-10-07T02:48:17.835Z,42.35
2018-10-07T02:49:18.331Z,42.35
2018-10-07T02:50:18.322Z,42.15
2018-10-07T02:51:17.531Z,42.25
2018-10-07T02:52:18.318Z,42.35
2018-10-07T02:53:17.653Z,42.05
2018-10-07T02:54:17.502Z,42.15
2018-10-07T02:55:17.488Z,42.35
2018-10-07T02:56:17.478Z,42.05
2018-10-07T02:57:18.321Z,42.35
2018-10-07T02:58:18.369Z,42.55
2018-10-07T02:59:17.833Z,42.25
2018-10-07T03:00:18.323Z,42.15
2018-10-07T03:01:18.330Z,42.15
2018-10-07T03:02:17.411Z,42.85
2018-10-07T03:03:17.401Z,42.35
2018-10-07T03:04:17.408Z,42.45
2018-10-07T03:05:17.389Z,42.45
2018-10-07T03:06:17.367Z,42.15
2018-10-07T03:07:17.360Z,42.35
2018-10-07T03:08:17.345Z,42.15
2018-10-07T03:09:17.357Z,42.25
2018-10-07T03:10:17.824Z,42.35
2018-10-07T03:11:17.824Z,42.05
2018-10-07T03:12:17.306Z,42.45
2018-10-07T03:13:17.831Z,42.05
2018-10-07T03:14:17.296Z,42.25
2018-10-07T03:15:17.272Z,42.65
2018-10-07T03:16:17.850Z,42.35
2018-10-07T03:17:17.254Z,42.15
2018-10-07T03:18:17.823Z,42.95
2018-10-07T03:19:17.255Z,42.15
2018-10-07T03:20:17.215Z,42.05
2018-10-07T03:21:17.824Z,42.35
2018-10-07T03:22:17.826Z,42.25
2018-10-07T03:23:17.183Z,42.05
2018-10-07T03:24:17.187Z,42.15
2018-10-07T03:25:17.827Z,42.25
2018-10-07T03:26:17.825Z,42.35
2018-10-07T03:27:17.820Z,42.35
2018-10-07T03:28:17.825Z,42.35
2018-10-07T03:29:17.370Z,42.35
2018-10-07T03:30:17.111Z,42.25
2018-10-07T03:31:17.097Z,42.35
2018-10-07T03:32:17.826Z,42.15
2018-10-07T03:33:17.076Z,42.35
2018-10-07T03:34:17.351Z,41.96
2018-10-07T03:35:17.836Z,42.15
2018-10-07T03:36:17.046Z,42.35
2018-10-07T03:37:17.027Z,42.25
2018-10-07T03:38:17.832Z,42.25
2018-10-07T03:39:17.029Z,42.35
2018-10-07T03:40:17.004Z,42.35
2018-10-07T03:41:16.984Z,42.35
2018-10-07T03:42:16.980Z,42.45
2018-10-07T03:43:17.826Z,42.35
2018-10-07T03:44:16.971Z,42.35
2018-10-07T03:45:17.834Z,42.35
2018-10-07T03:46:17.824Z,42.35
2018-10-07T03:47:16.933Z,42.45
2018-10-07T03:48:16.909Z,42.35
2018-10-07T03:49:16.921Z,42.35
2018-10-07T03:50:16.888Z,42.95
2018-10-07T03:51:17.826Z,42.25
2018-10-07T03:52:16.864Z,42.15
2018-10-07T03:53:17.826Z,42.15
2018-10-07T03:54:16.863Z,42.45
2018-10-07T03:55:17.836Z,42.05
2018-10-07T03:56:17.326Z,41.96
2018-10-07T03:57:17.345Z,42.35
2018-10-07T03:58:17.329Z,41.96
2018-10-07T03:59:16.806Z,41.96
2018-10-07T04:00:17.328Z,42.45
2018-10-07T04:01:16.771Z,42.45
2018-10-07T04:02:17.330Z,42.05
2018-10-07T04:03:16.755Z,42.05
2018-10-07T04:04:16.848Z,41.85
2018-10-07T04:05:16.722Z,42.15
2018-10-07T04:06:16.709Z,41.96
2018-10-07T04:07:16.700Z,42.05
2018-10-07T04:08:16.689Z,41.85
2018-10-07T04:09:17.351Z,42.15
2018-10-07T04:10:16.667Z,42.05
2018-10-07T04:11:16.656Z,42.47
2018-10-07T04:12:16.646Z,42.35
2018-10-07T04:13:17.326Z,42.35
2018-10-07T04:14:16.650Z,42.05
2018-10-07T04:15:17.327Z,42.05
2018-10-07T04:16:16.603Z,41.96
2018-10-07T04:17:17.327Z,42.25
2018-10-07T04:18:17.334Z,41.96
2018-10-07T04:19:16.838Z,41.96
2018-10-07T04:20:17.329Z,42.45
2018-10-07T04:21:17.333Z,42.05
2018-10-07T04:22:16.534Z,41.85
2018-10-07T04:23:16.524Z,42.45
2018-10-07T04:24:16.844Z,42.25
2018-10-07T04:25:16.501Z,41.96
2018-10-07T04:26:17.344Z,42.45
2018-10-07T04:27:16.478Z,42.25
2018-10-07T04:28:17.328Z,42.45
2018-10-07T04:29:16.482Z,42.05
2018-10-07T04:30:16.445Z,42.35
2018-10-07T04:31:16.434Z,42.15
2018-10-07T04:32:16.424Z,42.25
2018-10-07T04:33:16.412Z,41.96
2018-10-07T04:34:16.848Z,42.45
2018-10-07T04:35:17.328Z,42.05
2018-10-07T04:36:16.388Z,42.25
2018-10-07T04:37:16.373Z,42.45
2018-10-07T04:38:16.359Z,41.85
2018-10-07T04:39:16.848Z,41.96
2018-10-07T04:40:17.328Z,42.25
2018-10-07T04:41:16.327Z,42.45
2018-10-07T04:42:16.320Z,42.05
2018-10-07T04:43:16.301Z,42.05
2018-10-07T04:44:16.308Z,42.45
2018-10-07T04:45:16.287Z,41.96
2018-10-07T04:46:16.284Z,41.96
2018-10-07T04:47:16.834Z,42.35
2018-10-07T04:48:16.830Z,41.96
2018-10-07T04:49:16.847Z,42.55
2018-10-07T04:50:16.229Z,42.05
2018-10-07T04:51:16.216Z,42.07
2018-10-07T04:52:16.203Z,42.25
2018-10-07T04:53:16.195Z,42.15
2018-10-07T04:54:16.312Z,42.05
2018-10-07T04:55:16.172Z,42.15
2018-10-07T04:56:16.159Z,41.96
2018-10-07T04:57:16.152Z,42.05
2018-10-07T04:58:16.828Z,42.15
2018-10-07T04:59:16.158Z,42.15
2018-10-07T05:00:16.198Z,42.45
2018-10-07T05:01:16.830Z,42.45
2018-10-07T05:02:16.097Z,42.05
2018-10-07T05:03:16.087Z,42.35
2018-10-07T05:04:16.078Z,41.97
2018-10-07T05:05:16.081Z,42.35
2018-10-07T05:06:16.059Z,42.25
2018-10-07T05:07:16.039Z,41.96
2018-10-07T05:08:16.029Z,42.15
2018-10-07T05:09:16.020Z,42.15
2018-10-07T05:10:16.073Z,42.25
2018-10-07T05:11:16.031Z,42.45
2018-10-07T05:12:16.123Z,42.25
2018-10-07T05:13:15.972Z,42.05
2018-10-07T05:14:15.965Z,42.05
2018-10-07T05:15:15.996Z,42.25
2018-10-07T05:16:16.862Z,42.35
2018-10-07T05:17:16.832Z,42.25
2018-10-07T05:18:15.919Z,41.85
2018-10-07T05:19:15.908Z,42.25
2018-10-07T05:20:16.357Z,42.35
2018-10-07T05:21:15.928Z,42.45
2018-10-07T05:22:15.877Z,42.35
2018-10-07T05:23:15.864Z,42.05
2018-10-07T05:24:15.867Z,41.85
2018-10-07T05:25:16.388Z,42.15
2018-10-07T05:26:15.918Z,42.25
2018-10-07T05:27:15.825Z,42.35
2018-10-07T05:28:15.811Z,42.35
2018-10-07T05:29:15.795Z,41.96
2018-10-07T05:30:15.811Z,42.15
2018-10-07T05:31:16.377Z,42.25
2018-10-07T05:32:15.766Z,42.25
2018-10-07T05:33:16.400Z,42.05
2018-10-07T05:34:16.332Z,42.15
2018-10-07T05:35:16.346Z,42.18
2018-10-07T05:36:15.739Z,42.35
2018-10-07T05:37:15.707Z,42.15
2018-10-07T05:38:16.332Z,42.15
2018-10-07T05:39:16.330Z,42.35
2018-10-07T05:40:15.694Z,42.15
2018-10-07T05:41:16.407Z,42.25
2018-10-07T05:42:16.337Z,42.15
2018-10-07T05:43:16.333Z,42.05
2018-10-07T05:44:15.683Z,42.15
2018-10-07T05:45:15.638Z,42.15
2018-10-07T05:46:15.704Z,42.35
2018-10-07T05:47:15.602Z,42.35
2018-10-07T05:48:15.609Z,42.35
2018-10-07T05:49:15.579Z,41.85
2018-10-07T05:50:15.843Z,42.27
2018-10-07T05:51:15.604Z,42.35
2018-10-07T05:52:15.555Z,42.18
2018-10-07T05:53:15.541Z,42.35
2018-10-07T05:54:15.531Z,42.15
2018-10-07T05:55:15.541Z,42.35
2018-10-07T05:56:15.514Z,41.85
2018-10-07T05:57:15.500Z,42.15
2018-10-07T05:58:16.333Z,42.18
2018-10-07T05:59:15.472Z,42.27
2018-10-07T06:00:15.476Z,42.05
2018-10-07T06:01:15.459Z,42.35
2018-10-07T06:02:16.354Z,42.45
2018-10-07T06:03:15.431Z,42.85
2018-10-07T06:04:15.420Z,42.15
2018-10-07T06:05:15.428Z,42.07
2018-10-07T06:06:16.333Z,42.85
2018-10-07T06:07:15.402Z,42.55
2018-10-07T06:08:16.331Z,42.77
2018-10-07T06:09:15.367Z,42.95
2018-10-07T06:10:15.369Z,42.07
2018-10-07T06:11:15.350Z,42.07
2018-10-07T06:12:15.844Z,42.47
2018-10-07T06:13:15.328Z,42.05
2018-10-07T06:14:15.830Z,42.25
2018-10-07T06:15:15.333Z,42.65
2018-10-07T06:16:15.286Z,42.87
2018-10-07T06:17:15.281Z,42.45
2018-10-07T06:18:15.263Z,42.25
2018-10-07T06:19:15.250Z,42.25
2018-10-07T06:20:15.272Z,42.67
2018-10-07T06:21:15.231Z,42.95
2018-10-07T06:22:15.834Z,42.85
2018-10-07T06:23:15.835Z,42.45
2018-10-07T06:24:15.209Z,42.85
2018-10-07T06:25:15.206Z,42.77
2018-10-07T06:26:15.178Z,42.85
2018-10-07T06:27:15.834Z,42.15
2018-10-07T06:28:15.167Z,42.87
2018-10-07T06:29:15.145Z,42.65
2018-10-07T06:30:15.154Z,42.85
2018-10-07T06:31:15.127Z,42.75
2018-10-07T06:32:15.114Z,42.18
2018-10-07T06:33:15.102Z,42.75
2018-10-07T06:34:15.091Z,42.67
2018-10-07T06:35:15.349Z,42.35
2018-10-07T06:36:15.833Z,42.65
2018-10-07T06:37:15.055Z,42.77
2018-10-07T06:38:15.048Z,42.87
2018-10-07T06:39:15.833Z,42.77
2018-10-07T06:40:15.055Z,42.77
2018-10-07T06:41:15.868Z,42.65
2018-10-07T06:42:15.004Z,42.67
2018-10-07T06:43:14.989Z,42.55
2018-10-07T06:44:14.982Z,42.67
2018-10-07T06:45:15.395Z,42.67
2018-10-07T06:46:15.835Z,42.65
2018-10-07T06:47:15.832Z,42.67
2018-10-07T06:48:14.940Z,42.55
2018-10-07T06:49:14.930Z,42.55
2018-10-07T06:50:15.344Z,42.67
2018-10-07T06:51:14.908Z,42.67
2018-10-07T06:52:14.905Z,42.65
2018-10-07T06:53:15.836Z,42.57
2018-10-07T06:54:14.879Z,42.65
2018-10-07T06:55:15.043Z,42.37
2018-10-07T06:56:14.850Z,42.37
2018-10-07T06:57:14.839Z,42.57
2018-10-07T06:58:14.831Z,42.67
2018-10-07T06:59:15.352Z,42.45
2018-10-07T07:00:14.828Z,42.55
2018-10-07T07:01:15.337Z,42.18
2018-10-07T07:02:15.336Z,42.27
2018-10-07T07:03:15.335Z,42.37
2018-10-07T07:04:14.780Z,42.57
2018-10-07T07:05:14.787Z,42.65
2018-10-07T07:06:15.390Z,42.45
2018-10-07T07:07:14.732Z,42.57
2018-10-07T07:08:14.720Z,42.37
2018-10-07T07:09:14.709Z,42.65
2018-10-07T07:10:15.372Z,42.35
2018-10-07T07:11:14.694Z,42.37
2018-10-07T07:12:15.348Z,42.47
2018-10-07T07:13:14.673Z,42.47
2018-10-07T07:14:14.658Z,42.57
2018-10-07T07:15:15.339Z,42.45
2018-10-07T07:16:14.663Z,42.37
2018-10-07T07:17:14.625Z,42.57
2018-10-07T07:18:14.612Z,42.45
2018-10-07T07:19:15.335Z,42.35
2018-10-07T07:20:15.401Z,42.45
2018-10-07T07:21:14.605Z,42.37
2018-10-07T07:22:15.335Z,42.37
2018-10-07T07:23:14.562Z,42.35
2018-10-07T07:24:14.547Z,42.35
2018-10-07T07:25:14.540Z,42.67
2018-10-07T07:26:14.852Z,42.18
2018-10-07T07:27:14.524Z,42.45
2018-10-07T07:28:14.512Z,42.55
2018-10-07T07:29:15.337Z,42.27
2018-10-07T07:30:14.481Z,42.27
2018-10-07T07:31:14.901Z,42.37
2018-10-07T07:32:15.337Z,42.15
2018-10-07T07:33:14.459Z,41.67
2018-10-07T07:34:14.434Z,42.18
2018-10-07T07:35:14.425Z,41.67
2018-10-07T07:36:14.873Z,41.85
2018-10-07T07:37:14.409Z,42.57
2018-10-07T07:38:14.404Z,41.88
2018-10-07T07:39:14.394Z,41.88
2018-10-07T07:40:14.370Z,41.85
2018-10-07T07:41:14.849Z,42.35
2018-10-07T07:42:14.370Z,42.18
2018-10-07T07:43:14.362Z,42.18
2018-10-07T07:44:14.337Z,42.05
2018-10-07T07:45:14.843Z,42.37
2018-10-07T07:46:14.320Z,42.37
2018-10-07T07:47:14.836Z,42.18
2018-10-07T07:48:14.862Z,42.15
2018-10-07T07:49:14.995Z,41.67
2018-10-07T07:50:14.257Z,42.37
2018-10-07T07:51:14.413Z,42.37
2018-10-07T07:52:14.234Z,41.66
2018-10-07T07:53:14.230Z,42.15
2018-10-07T07:54:14.218Z,42.35
2018-10-07T07:55:14.840Z,41.67
2018-10-07T07:56:14.351Z,41.85
2018-10-07T07:57:14.181Z,41.88
2018-10-07T07:58:14.169Z,42.18
2018-10-07T07:59:14.163Z,42.27
2018-10-07T08:00:14.146Z,41.88
2018-10-07T08:01:14.354Z,41.88
2018-10-07T08:02:14.840Z,41.88
2018-10-07T08:03:14.112Z,41.96
2018-10-07T08:04:14.121Z,41.97
2018-10-07T08:05:14.838Z,42.15
2018-10-07T08:06:14.100Z,42.37
2018-10-07T08:07:14.839Z,42.25
2018-10-07T08:08:14.839Z,42.37
2018-10-07T08:09:14.075Z,41.85
2018-10-07T08:10:14.038Z,42.37
2018-10-07T08:11:14.044Z,42.37
2018-10-07T08:12:14.841Z,42.37
2018-10-07T08:13:14.004Z,42.37
2018-10-07T08:14:14.848Z,42.25
2018-10-07T08:15:14.839Z,42.55
2018-10-07T08:16:14.356Z,42.15
2018-10-07T08:17:14.014Z,41.85
2018-10-07T08:18:14.838Z,42.45
2018-10-07T08:19:13.978Z,41.85
2018-10-07T08:20:13.923Z,42.25
2018-10-07T08:21:13.943Z,42.35
2018-10-07T08:22:13.907Z,42.25
2018-10-07T08:23:14.887Z,42.35
2018-10-07T08:24:13.947Z,42.35
2018-10-07T08:25:13.877Z,41.85
2018-10-07T08:26:13.877Z,42.05
2018-10-07T08:27:14.840Z,42.55
2018-10-07T08:28:13.844Z,41.75
2018-10-07T08:29:14.347Z,41.75
2018-10-07T08:30:13.828Z,41.66
2018-10-07T08:31:13.842Z,41.85
2018-10-07T08:32:14.340Z,41.75
2018-10-07T08:33:14.340Z,41.66
2018-10-07T08:34:13.774Z,42.15
2018-10-07T08:35:13.824Z,42.75
2018-10-07T08:36:14.043Z,41.85
2018-10-07T08:37:13.741Z,41.55
2018-10-07T08:38:14.339Z,41.85
2018-10-07T08:39:13.720Z,41.75
2018-10-07T08:40:14.354Z,41.75
2018-10-07T08:41:13.810Z,41.75
2018-10-07T08:42:13.686Z,41.75
2018-10-07T08:43:13.673Z,42.15
2018-10-07T08:44:14.342Z,41.75
2018-10-07T08:45:13.770Z,41.85
2018-10-07T08:46:13.859Z,41.85
2018-10-07T08:47:13.633Z,42.23
2018-10-07T08:48:14.341Z,42.15
2018-10-07T08:49:13.609Z,42.25
2018-10-07T08:50:14.349Z,42.15
2018-10-07T08:51:13.853Z,42.15
2018-10-07T08:52:13.597Z,41.96
2018-10-07T08:53:13.565Z,41.85
2018-10-07T08:54:13.558Z,42.85
2018-10-07T08:55:13.550Z,41.75
2018-10-07T08:56:13.677Z,42.75
2018-10-07T08:57:13.528Z,42.75
2018-10-07T08:58:13.515Z,41.83
2018-10-07T08:59:13.500Z,43.13
2018-10-07T09:00:13.516Z,42.35
2018-10-07T09:01:13.854Z,42.23
2018-10-07T09:02:14.416Z,42.23
2018-10-07T09:03:13.460Z,42.03
2018-10-07T09:04:13.453Z,42.23
2018-10-07T09:05:13.451Z,42.23
2018-10-07T09:06:13.854Z,42.63
2018-10-07T09:07:13.415Z,42.03
2018-10-07T09:08:14.341Z,41.83
2018-10-07T09:09:13.391Z,42.53
2018-10-07T09:10:13.408Z,41.83
2018-10-07T09:11:13.414Z,42.23
2018-10-07T09:12:14.345Z,42.03
2018-10-07T09:13:13.352Z,42.23
2018-10-07T09:14:13.335Z,42.23
2018-10-07T09:15:13.401Z,42.03
2018-10-07T09:16:13.846Z,42.33
2018-10-07T09:17:13.325Z,42.23
2018-10-07T09:18:13.293Z,42.03
2018-10-07T09:19:13.847Z,42.23
2018-10-07T09:20:13.861Z,42.41
2018-10-07T09:21:13.274Z,42.13
2018-10-07T09:22:13.284Z,42.13
2018-10-07T09:23:13.843Z,41.82
2018-10-07T09:24:13.842Z,42.11
2018-10-07T09:25:13.265Z,42.03
2018-10-07T09:26:13.222Z,42.11
2018-10-07T09:27:13.430Z,42.11
2018-10-07T09:28:13.185Z,42.11
2018-10-07T09:29:13.174Z,42.01
2018-10-07T09:30:13.252Z,42.41
2018-10-07T09:31:13.152Z,41.82
2018-10-07T09:32:13.385Z,42.11
2018-10-07T09:33:13.141Z,42.31
2018-10-07T09:34:13.120Z,42.11
2018-10-07T09:35:13.856Z,42.11
2018-10-07T09:36:13.896Z,42.01
2018-10-07T09:37:13.113Z,41.82
2018-10-07T09:38:13.089Z,41.91
2018-10-07T09:39:13.146Z,41.82
2018-10-07T09:40:13.057Z,41.69
2018-10-07T09:41:13.056Z,41.52
2018-10-07T09:42:13.053Z,41.61
2018-10-07T09:43:13.032Z,41.79
2018-10-07T09:44:13.846Z,41.71
2018-10-07T09:45:12.999Z,41.60
2018-10-07T09:46:13.856Z,41.50
2018-10-07T09:47:13.085Z,41.50
2018-10-07T09:48:13.846Z,41.39
2018-10-07T09:49:13.844Z,41.50
2018-10-07T09:50:12.975Z,41.39
2018-10-07T09:51:12.961Z,41.20
2018-10-07T09:52:13.403Z,41.39
2018-10-07T09:53:13.844Z,41.22
2018-10-07T09:54:12.903Z,41.00
2018-10-07T09:55:12.915Z,41.50
2018-10-07T09:56:13.869Z,41.89
2018-10-07T09:57:13.360Z,40.90
2018-10-07T09:58:12.860Z,41.60
2018-10-07T09:59:12.847Z,40.80
2018-10-07T10:00:13.344Z,41.89
2018-10-07T10:01:13.404Z,41.69
2018-10-07T10:02:12.833Z,41.50
2018-10-07T10:03:12.803Z,41.50
2018-10-07T10:04:12.901Z,41.30
2018-10-07T10:05:13.353Z,41.30
2018-10-07T10:06:13.354Z,41.30
2018-10-07T10:07:12.895Z,41.30
2018-10-07T10:08:12.765Z,41.30
2018-10-07T10:09:12.739Z,41.20
2018-10-07T10:10:12.730Z,41.20
2018-10-07T10:11:13.427Z,41.77
2018-10-07T10:12:12.740Z,41.67
2018-10-07T10:13:13.348Z,41.58
2018-10-07T10:14:12.742Z,41.58
2018-10-07T10:15:12.674Z,40.98
2018-10-07T10:16:13.389Z,41.08
2018-10-07T10:17:12.676Z,40.48
2018-10-07T10:18:12.647Z,41.08
2018-10-07T10:19:12.629Z,40.48
2018-10-07T10:20:12.625Z,40.38
2018-10-07T10:21:12.624Z,40.38
2018-10-07T10:22:12.621Z,40.48
2018-10-07T10:23:12.589Z,40.38
2018-10-07T10:24:13.347Z,40.28
2018-10-07T10:25:12.571Z,40.28
2018-10-07T10:26:13.359Z,40.68
2018-10-07T10:27:12.566Z,40.58
2018-10-07T10:28:12.533Z,40.38
2018-10-07T10:29:13.351Z,40.56
2018-10-07T10:30:12.589Z,40.88
2018-10-07T10:31:12.507Z,40.88
2018-10-07T10:32:12.891Z,40.48
2018-10-07T10:33:13.347Z,40.78
2018-10-07T10:34:12.467Z,40.68
2018-10-07T10:35:13.345Z,40.76
2018-10-07T10:36:12.445Z,40.88
2018-10-07T10:37:12.523Z,40.58
2018-10-07T10:38:13.342Z,40.86
2018-10-07T10:39:13.347Z,40.58
2018-10-07T10:40:12.405Z,40.78
2018-10-07T10:41:12.415Z,40.76
2018-10-07T10:42:12.436Z,40.46
2018-10-07T10:43:12.369Z,40.46
2018-10-07T10:44:12.359Z,40.76
2018-10-07T10:45:12.349Z,40.76
2018-10-07T10:46:12.335Z,40.76
2018-10-07T10:47:12.513Z,41.06
2018-10-07T10:48:12.426Z,41.16
2018-10-07T10:49:12.852Z,41.06
2018-10-07T10:50:12.292Z,41.16
2018-10-07T10:51:12.280Z,40.96
2018-10-07T10:52:12.485Z,41.06
2018-10-07T10:53:12.848Z,41.06
2018-10-07T10:54:12.847Z,41.16
2018-10-07T10:55:12.335Z,41.36
2018-10-07T10:56:12.227Z,41.16
2018-10-07T10:57:12.374Z,40.86
2018-10-07T10:58:12.228Z,40.96
2018-10-07T10:59:12.205Z,40.76
2018-10-07T11:00:12.183Z,40.74
2018-10-07T11:01:12.175Z,40.84
2018-10-07T11:02:12.367Z,41.24
2018-10-07T11:03:12.848Z,40.56
2018-10-07T11:04:12.848Z,40.86
2018-10-07T11:05:12.852Z,40.94
2018-10-07T11:06:12.850Z,40.84
2018-10-07T11:07:12.383Z,40.94
2018-10-07T11:08:12.095Z,40.86
2018-10-07T11:09:12.133Z,41.34
2018-10-07T11:10:12.848Z,40.86
2018-10-07T11:11:12.098Z,41.36
2018-10-07T11:12:12.374Z,40.74
2018-10-07T11:13:12.045Z,40.64
2018-10-07T11:14:12.850Z,41.34
2018-10-07T11:15:12.035Z,40.44
2018-10-07T11:16:12.849Z,40.74
2018-10-07T11:17:12.082Z,40.14
2018-10-07T11:18:12.007Z,40.74
2018-10-07T11:19:12.860Z,40.24
2018-10-07T11:20:12.847Z,40.14
2018-10-07T11:21:12.852Z,40.05
2018-10-07T11:22:11.956Z,40.14
2018-10-07T11:23:11.960Z,40.14
2018-10-07T11:24:11.921Z,40.14
2018-10-07T11:25:11.911Z,40.05
2018-10-07T11:26:11.901Z,40.14
2018-10-07T11:27:11.898Z,40.24
2018-10-07T11:28:11.952Z,40.24
2018-10-07T11:29:12.853Z,40.24
2018-10-07T11:30:11.866Z,40.24
2018-10-07T11:31:11.844Z,40.44
2018-10-07T11:32:12.352Z,40.44
2018-10-07T11:33:11.861Z,40.14
2018-10-07T11:34:11.816Z,40.05
2018-10-07T11:35:11.804Z,40.14
2018-10-07T11:36:12.352Z,40.14
2018-10-07T11:37:12.348Z,40.14
2018-10-07T11:38:11.810Z,40.14
2018-10-07T11:39:11.760Z,40.34
2018-10-07T11:40:11.747Z,40.05
2018-10-07T11:41:12.348Z,40.24
2018-10-07T11:42:12.351Z,40.24
2018-10-07T11:43:11.736Z,40.44
2018-10-07T11:44:12.345Z,40.24
2018-10-07T11:45:12.353Z,40.34
2018-10-07T11:46:12.353Z,40.52
2018-10-07T11:47:11.670Z,40.64
2018-10-07T11:48:11.886Z,40.62
2018-10-07T11:49:12.369Z,40.62
2018-10-07T11:50:11.639Z,40.62
2018-10-07T11:51:11.641Z,40.62
2018-10-07T11:52:12.350Z,40.62
2018-10-07T11:53:11.742Z,40.64
2018-10-07T11:54:12.350Z,40.54
2018-10-07T11:55:12.352Z,40.92
2018-10-07T11:56:12.350Z,40.42
2018-10-07T11:57:12.351Z,40.94
2018-10-07T11:58:11.915Z,40.42
2018-10-07T11:59:12.353Z,40.52
2018-10-07T12:00:11.532Z,40.82
2018-10-07T12:01:11.518Z,40.42
2018-10-07T12:02:11.528Z,39.92
2018-10-07T12:03:11.865Z,40.33
2018-10-07T12:04:11.484Z,40.33
2018-10-07T12:05:11.476Z,40.42
2018-10-07T12:06:11.463Z,40.22
2018-10-07T12:07:11.456Z,40.22
2018-10-07T12:08:11.867Z,40.12
2018-10-07T12:09:12.350Z,40.22
2018-10-07T12:10:11.477Z,40.12
2018-10-07T12:11:11.410Z,40.12
2018-10-07T12:12:11.396Z,40.22
2018-10-07T12:13:11.412Z,40.12
2018-10-07T12:14:12.350Z,40.33
2018-10-07T12:15:12.355Z,40.12
2018-10-07T12:16:11.377Z,40.33
2018-10-07T12:17:11.846Z,40.42
2018-10-07T12:18:11.350Z,40.22
2018-10-07T12:19:11.348Z,39.63
2018-10-07T12:20:11.854Z,39.83
2018-10-07T12:21:11.300Z,39.92
2018-10-07T12:22:11.859Z,40.42
2018-10-07T12:23:11.383Z,39.81
2018-10-07T12:24:11.273Z,39.73
2018-10-07T12:25:11.257Z,39.73
2018-10-07T12:26:11.243Z,39.92
2018-10-07T12:27:11.237Z,39.90
2018-10-07T12:28:11.369Z,39.41
2018-10-07T12:29:11.851Z,39.23
2018-10-07T12:30:11.198Z,39.83
2018-10-07T12:31:11.188Z,39.92
2018-10-07T12:32:11.852Z,39.83
2018-10-07T12:33:11.187Z,39.92
2018-10-07T12:34:11.157Z,39.92
2018-10-07T12:35:11.147Z,39.92
2018-10-07T12:36:11.134Z,39.83
2018-10-07T12:37:11.126Z,39.92
2018-10-07T12:38:11.372Z,39.92
2018-10-07T12:39:11.854Z,39.90
2018-10-07T12:40:11.853Z,39.92
2018-10-07T12:41:11.081Z,39.31
2018-10-07T12:42:11.070Z,39.73
2018-10-07T12:43:11.086Z,39.31
2018-10-07T12:44:11.045Z,39.21
2018-10-07T12:45:11.860Z,39.23
2018-10-07T12:46:11.851Z,39.33
2018-10-07T12:47:11.855Z,39.31
2018-10-07T12:48:11.371Z,39.31
2018-10-07T12:49:11.000Z,39.81
2018-10-07T12:50:11.857Z,39.31
2018-10-07T12:51:11.853Z,39.31
2018-10-07T12:52:11.856Z,39.41
2018-10-07T12:53:11.368Z,39.21
2018-10-07T12:54:10.994Z,39.31
2018-10-07T12:55:11.857Z,39.21
2018-10-07T12:56:11.859Z,39.31